Flight Track Log - Related Links

Times and Time Zones

All times are in EDT time to prevent confusion due to time zone crossing. See the N3077U flight status page for this flight to view local times or setup timezone preferences in your user account.

Time Position Orientation Groundspeed Altitude Reporting Facility
EDT Latitude Longitude Course Direction KTS MPH feet Rate Location/Type
Sun 06:02:55 PM 29.5392 -98.4594 327° Northwest 86 99 1,300  Level Houston Center
Sun 06:04:02 PM 29.5617 -98.4761 327° Northwest 83 96 2,000 640 Climbing Houston Center
Sun 06:04:10 PM 29.5661 -98.4756 North 88 101 2,100 590 Climbing Houston Center
Sun 06:05:03 PM 29.5822 -98.4711 13° North 69 79 2,600 581 Climbing Houston Center
Sun 06:05:12 PM 29.5856 -98.4689 30° Northeast 75 86 2,700 700 Climbing Houston Center
Sun 06:06:03 PM 29.6072 -98.4706 356° North 87 100 3,300 774 Climbing Houston Center
Sun 06:06:14 PM 29.6111 -98.4700 North 82 94 3,500 984 Climbing Houston Center
Sun 06:07:04 PM 29.6300 -98.4656 12° North 90 104 4,300 871 Climbing Houston Center
Sun 06:07:16 PM 29.6344 -98.4628 29° Northeast 86 99 4,400 492 Climbing Houston Center
Sun 06:08:05 PM 29.6547 -98.4600 North 92 106 4,800 484 Climbing Houston Center
Sun 06:08:18 PM 29.6614 -98.4583 12° North 94 108 4,900 545 Climbing Houston Center
Sun 06:09:00 PM 29.6817 -98.4567 North 112 129 5,300 484 Climbing Houston Center
Sun 06:09:20 PM 29.6922 -98.4531 17° North 109 125 5,400 500 Climbing Houston Center
Sun 06:10:12 PM 29.7206 -98.4472 10° North 130 150 5,900 581 Climbing Houston Center
Sun 06:10:22 PM 29.7278 -98.4458 North 126 145 6,000 590 Climbing Houston Center
Sun 06:11:13 PM 29.7619 -98.4400 North 137 158 6,500 571 Climbing Houston Center
Sun 06:11:25 PM 29.7681 -98.4372 22° Northeast 132 152 6,600 405 Climbing Houston Center
Sun 06:12:27 PM 29.8056 -98.4294 10° North 134 154 7,000 194 Climbing Houston Center
Sun 06:13:29 PM 29.8547 -98.4194 10° North 167 192 7,000  Level Houston Center
Sun 06:14:31 PM 29.9058 -98.4081 11° North 181 208 7,000  Level Houston Center
Sun 06:15:33 PM 29.9603 -98.3975 10° North 186 214 7,000  Level Houston Center
Sun 06:16:35 PM 30.0114 -98.3869 10° North 188 216 7,000  Level Houston Center
Sun 06:17:37 PM 30.0667 -98.3750 11° North 187 215 7,000  Level Houston Center
Sun 06:18:39 PM 30.1181 -98.3636 11° North 187 215 7,000  Level Houston Center
Sun 06:19:42 PM 30.1736 -98.3522 10° North 187 215 7,000  Level Houston Center
Sun 06:20:44 PM 30.2247 -98.3406 11° North 187 215 7,000  Level Houston Center
Sun 06:21:46 PM 30.2761 -98.3314 North 185 213 7,000  Level Houston Center
Sun 06:22:48 PM 30.3225 -98.3208 11° North 186 214 7,000  Level Houston Center
Sun 06:23:50 PM 30.3839 -98.3083 10° North 186 214 7,000  Level Houston Center
Sun 06:24:52 PM 30.4350 -98.2975 10° North 186 214 7,000  Level Houston Center
Sun 06:25:54 PM 30.4856 -98.2864 11° North 186 214 7,000  Level Houston Center
Sun 06:26:56 PM 30.5358 -98.2761 10° North 185 213 7,000  Level Houston Center
Sun 06:27:59 PM 30.5861 -98.2658 10° North 183 211 7,000  Level Houston Center
Sun 06:29:01 PM 30.6333 -98.2561 10° North 178 205 7,000  Level Houston Center
Sun 06:30:03 PM 30.6819 -98.2453 11° North 176 203 7,000  Level Houston Center
Sun 06:31:05 PM 30.7381 -98.2336 10° North 176 203 7,000  Level Houston Center
Sun 06:32:07 PM 30.7869 -98.2228 11° North 176 203 7,000  Level Houston Center
Sun 06:33:09 PM 30.8356 -98.2139 North 176 203 7,000  Level Houston Center
Sun 06:34:11 PM 30.8833 -98.2044 10° North 176 203 7,000  Level Houston Center
Sun 06:35:14 PM 30.9311 -98.1931 12° North 176 203 7,000  Level Houston Center
Sun 06:36:16 PM 30.9797 -98.1839 North 176 203 7,000  Level Houston Center
Sun 06:37:18 PM 31.0269 -98.1733 11° North 175 201 7,000  Level Houston Center
Sun 06:38:20 PM 31.0819 -98.1617 10° North 175 201 7,000 48 Level Houston Center
Sun 06:39:22 PM 31.1303 -98.1508 11° North 175 201 7,100 48 Climbing Houston Center
Sun 06:40:25 PM 31.1778 -98.1417 North 175 201 7,100  Level Fort Worth Center
Sun 06:40:45 PM 31.1947 -98.1386 North 168 193 7,100  Level Fort Worth Center
Sun 06:41:27 PM 31.2231 -98.1311 13° North 171 197 7,100  Level Fort Worth Center
Sun 06:41:45 PM 31.2394 -98.1264 14° North 167 192 7,100  Level Fort Worth Center
Sun 06:42:29 PM 31.2672 -98.1189 13° North 167 192 7,100  Level Fort Worth Center
Sun 06:42:40 PM 31.2825 -98.1144 14° North 164 189 7,100  Level Fort Worth Center
Sun 06:43:31 PM 31.3128 -98.1061 13° North 167 192 7,100  Level Fort Worth Center
Sun 06:43:40 PM 31.3256 -98.1053 North 164 189 7,100  Level Fort Worth Center
Sun 06:44:33 PM 31.3581 -98.0967 13° North 167 192 7,100  Level Fort Worth Center
Sun 06:44:41 PM 31.3706 -98.0931 14° North 163 188 7,100  Level Fort Worth Center
Sun 06:45:35 PM 31.4097 -98.0808 15° North 166 191 7,100  Level Fort Worth Center
Sun 06:45:41 PM 31.4131 -98.0789 26° Northeast 163 188 7,100  Level Fort Worth Center
Sun 06:46:37 PM 31.4500 -98.0567 27° Northeast 165 190 7,100  Level Fort Worth Center
Sun 06:47:40 PM 31.4908 -98.0281 31° Northeast 165 190 7,100  Level Fort Worth Center
Sun 06:48:42 PM 31.5317 -98.0000 30° Northeast 166 191 7,100  Level Fort Worth Center
Sun 06:49:44 PM 31.5725 -97.9725 30° Northeast 166 191 7,100  Level Fort Worth Center
Sun 06:50:46 PM 31.6131 -97.9456 29° Northeast 166 191 7,100  Level Fort Worth Center
Sun 06:51:48 PM 31.6539 -97.9178 30° Northeast 166 191 7,100  Level Fort Worth Center
Sun 06:52:50 PM 31.6958 -97.8892 30° Northeast 167 192 7,100  Level Fort Worth Center
Sun 06:53:52 PM 31.7433 -97.8553 31° Northeast 167 192 7,100  Level Fort Worth Center
Sun 06:54:54 PM 31.7844 -97.8278 30° Northeast 167 192 7,100  Level Fort Worth Center
Sun 06:55:56 PM 31.8261 -97.8000 30° Northeast 167 192 7,100  Level Fort Worth Center
Sun 06:56:58 PM 31.8664 -97.7711 31° Northeast 167 192 7,100  Level Fort Worth Center
Sun 06:58:01 PM 31.9086 -97.7422 30° Northeast 169 194 7,100  Level Fort Worth Center
Sun 06:59:03 PM 31.9503 -97.7153 29° Northeast 170 196 7,100  Level Fort Worth Center
Sun 07:00:05 PM 31.9961 -97.6822 31° Northeast 170 196 7,100  Level Fort Worth Center
Sun 07:01:07 PM 32.0394 -97.6528 30° Northeast 169 194 7,100  Level Fort Worth Center
Sun 07:02:09 PM 32.0797 -97.6242 31° Northeast 169 194 7,100  Level Fort Worth Center
Sun 07:03:11 PM 32.1233 -97.5947 30° Northeast 168 193 7,100  Level Fort Worth Center
Sun 07:04:13 PM 32.1647 -97.5672 29° Northeast 168 193 7,100  Level Fort Worth Center
Sun 07:05:15 PM 32.2061 -97.5381 31° Northeast 171 197 7,100  Level Fort Worth Center
Sun 07:06:17 PM 32.2503 -97.5072 31° Northeast 170 196 7,100  Level Fort Worth Center
Sun 07:07:19 PM 32.2919 -97.4769 32° Northeast 172 198 7,100  Level Fort Worth Center
Sun 07:08:22 PM 32.3297 -97.4372 42° Northeast 171 197 7,100  Level Fort Worth Center
Sun 07:09:24 PM 32.3369 -97.3806 81° East 180 207 7,100  Level Fort Worth Center
Sun 07:10:26 PM 32.3392 -97.3194 88° East 177 204 7,100 -242 Level Fort Worth Center
Sun 07:11:28 PM 32.3419 -97.2608 87° East 176 203 6,600 -532 Descending Fort Worth Center
Sun 07:12:30 PM 32.3431 -97.1947 89° East 185 213 6,000 -484 Descending Fort Worth Center
Sun 07:13:32 PM 32.3481 -97.1364 84° East 183 211 5,600 -387 Descending Fort Worth Center
Sun 07:14:34 PM 32.3561 -97.0783 81° East 172 198 5,200 -290 Descending Fort Worth Center
Sun 07:15:36 PM 32.3606 -97.0256 84° East 167 192 5,000 -48 Descending Fort Worth Center
Sun 07:16:38 PM 32.3633 -96.9694 87° East 161 185 5,100 48 Climbing Fort Worth Center
Sun 07:17:40 PM 32.3647 -96.9156 88° East 161 185 5,100 -96 Level Fort Worth Center
Sun 07:18:43 PM 32.3669 -96.8569 87° East 164 189 4,900 -432 Descending Fort Worth Center
Sun 07:19:45 PM 32.3900 -96.8119 59° Northeast 167 192 4,200 -387 Descending Fort Worth Center
Sun 07:20:47 PM 32.4239 -96.7733 44° Northeast 156 180 4,100 -48 Descending Fort Worth Center
Sun 07:21:49 PM 32.4497 -96.7383 49° Northeast 143 165 4,100  Level Fort Worth Center
Sun 07:22:51 PM 32.4908 -96.7200 21° North 148 170 4,100  Level Fort Worth Center
Sun 07:23:53 PM 32.5336 -96.7200 360° North 150 173 4,100  Level Fort Worth Center
Sun 07:24:55 PM 32.5747 -96.7181 North 150 173 4,100  Level Fort Worth Center
Sun 07:25:57 PM 32.6183 -96.7133 North 148 170 4,100  Level Fort Worth Center
Sun 07:26:59 PM 32.6589 -96.7097 North 147 169 4,100  Level Fort Worth Center
Sun 07:28:01 PM 32.7017 -96.7044 North 146 168 4,100  Level Fort Worth Center
Sun 07:28:59 PM 32.7333 -96.7000 North 142 163 4,100  Level Dallas / Fort Worth TRACON
Sun 07:29:59 PM 32.7667 -96.7000 360° North 150 173 4,100 53 Level Dallas / Fort Worth TRACON
Sun 07:30:53 PM 32.8000 -96.7167 337° Northwest 140 161 4,200 -150 Climbing Dallas / Fort Worth TRACON
Sun 07:31:59 PM 32.8333 -96.7500 320° Northwest 143 165 3,800 -762 Descending Dallas / Fort Worth TRACON
Sun 07:32:59 PM 32.8667 -96.7833 320° Northwest 113 130 2,600 -900 Descending Dallas / Fort Worth TRACON
Sun 07:33:59 PM 32.8833 -96.8000 320° Northwest 103 119 2,000 -450 Descending Dallas / Fort Worth TRACON
Sun 07:34:59 PM 32.9167 -96.8167 337° Northwest 88 101 1,700 -350 Descending Dallas / Fort Worth TRACON
Sun 07:35:59 PM 32.9333 -96.8167 360° North 89 102 1,300 -400 Descending Dallas / Fort Worth TRACON

Login

Don't have an account? Register now (free) for customized features, flight alerts, and more!